sensor_id;sensor_type;location;lat;lon;timestamp;P1;durP1;ratioP1;P2;durP2;ratioP2
21721;SDS011;11023;48.274;7.794;2022-12-05T00:01:14;38.40;;;21.30;;
21721;SDS011;11023;48.274;7.794;2022-12-05T00:03:40;38.60;;;21.15;;
21721;SDS011;11023;48.274;7.794;2022-12-05T00:06:06;34.35;;;20.17;;
21721;SDS011;11023;48.274;7.794;2022-12-05T00:08:32;37.30;;;20.73;;
21721;SDS011;11023;48.274;7.794;2022-12-05T00:10:57;33.88;;;19.85;;
21721;SDS011;11023;48.274;7.794;2022-12-05T00:13:23;39.83;;;20.67;;
21721;SDS011;11023;48.274;7.794;2022-12-05T00:15:49;36.13;;;20.77;;
21721;SDS011;11023;48.274;7.794;2022-12-05T00:18:16;33.83;;;19.88;;
21721;SDS011;11023;48.274;7.794;2022-12-05T00:20:48;34.85;;;19.70;;
21721;SDS011;11023;48.274;7.794;2022-12-05T00:23:14;34.80;;;20.13;;
21721;SDS011;11023;48.274;7.794;2022-12-05T00:25:40;35.83;;;20.92;;
21721;SDS011;11023;48.274;7.794;2022-12-05T00:28:06;35.33;;;20.15;;
21721;SDS011;11023;48.274;7.794;2022-12-05T00:30:32;33.20;;;19.33;;
21721;SDS011;11023;48.274;7.794;2022-12-05T00:32:58;31.75;;;18.75;;
21721;SDS011;11023;48.274;7.794;2022-12-05T00:35:23;32.83;;;18.70;;
21721;SDS011;11023;48.274;7.794;2022-12-05T00:37:49;32.15;;;18.90;;
21721;SDS011;11023;48.274;7.794;2022-12-05T00:40:15;30.27;;;18.40;;
21721;SDS011;11023;48.274;7.794;2022-12-05T00:42:41;29.63;;;18.27;;
21721;SDS011;11023;48.274;7.794;2022-12-05T00:45:07;29.55;;;17.40;;
21721;SDS011;11023;48.274;7.794;2022-12-05T00:47:34;32.15;;;18.85;;
21721;SDS011;11023;48.274;7.794;2022-12-05T00:50:01;33.03;;;19.38;;
21721;SDS011;11023;48.274;7.794;2022-12-05T00:52:30;30.27;;;17.90;;
21721;SDS011;11023;48.274;7.794;2022-12-05T00:54:57;30.80;;;18.02;;
21721;SDS011;11023;48.274;7.794;2022-12-05T00:57:23;27.27;;;16.30;;
21721;SDS011;11023;48.274;7.794;2022-12-05T00:59:49;31.63;;;17.67;;
21721;SDS011;11023;48.274;7.794;2022-12-05T01:02:15;29.15;;;17.23;;
21721;SDS011;11023;48.274;7.794;2022-12-05T01:04:41;31.08;;;18.40;;
21721;SDS011;11023;48.274;7.794;2022-12-05T01:07:08;30.08;;;17.52;;
21721;SDS011;11023;48.274;7.794;2022-12-05T01:09:34;31.85;;;18.90;;
21721;SDS011;11023;48.274;7.794;2022-12-05T01:12:00;31.38;;;18.17;;
21721;SDS011;11023;48.274;7.794;2022-12-05T01:14:27;29.20;;;17.10;;
21721;SDS011;11023;48.274;7.794;2022-12-05T01:16:54;30.45;;;17.23;;
21721;SDS011;11023;48.274;7.794;2022-12-05T01:19:25;29.33;;;17.90;;
21721;SDS011;11023;48.274;7.794;2022-12-05T01:24:22;28.33;;;16.35;;
21721;SDS011;11023;48.274;7.794;2022-12-05T01:26:49;33.90;;;18.17;;
21721;SDS011;11023;48.274;7.794;2022-12-05T01:29:17;30.90;;;17.50;;
21721;SDS011;11023;48.274;7.794;2022-12-05T01:31:44;28.38;;;16.60;;
21721;SDS011;11023;48.274;7.794;2022-12-05T01:34:11;30.42;;;18.38;;
21721;SDS011;11023;48.274;7.794;2022-12-05T01:36:40;28.70;;;17.00;;
21721;SDS011;11023;48.274;7.794;2022-12-05T01:39:07;29.00;;;16.90;;
21721;SDS011;11023;48.274;7.794;2022-12-05T01:41:36;31.15;;;17.70;;
21721;SDS011;11023;48.274;7.794;2022-12-05T01:46:35;28.65;;;17.45;;
21721;SDS011;11023;48.274;7.794;2022-12-05T01:49:10;30.95;;;18.20;;
21721;SDS011;11023;48.274;7.794;2022-12-05T01:51:50;28.67;;;16.95;;
21721;SDS011;11023;48.274;7.794;2022-12-05T01:54:19;31.17;;;17.07;;
21721;SDS011;11023;48.274;7.794;2022-12-05T01:56:48;29.95;;;16.48;;
21721;SDS011;11023;48.274;7.794;2022-12-05T01:59:17;33.72;;;17.42;;
21721;SDS011;11023;48.274;7.794;2022-12-05T02:01:46;28.45;;;16.85;;
21721;SDS011;11023;48.274;7.794;2022-12-05T02:04:12;30.10;;;17.60;;
21721;SDS011;11023;48.274;7.794;2022-12-05T02:06:39;31.58;;;17.48;;
21721;SDS011;11023;48.274;7.794;2022-12-05T02:09:05;29.77;;;16.73;;
21721;SDS011;11023;48.274;7.794;2022-12-05T02:11:31;34.05;;;18.67;;
21721;SDS011;11023;48.274;7.794;2022-12-05T02:19:30;20.20;;;11.90;;
21721;SDS011;11023;48.274;7.794;2022-12-05T02:30:26;31.02;;;17.48;;
21721;SDS011;11023;48.274;7.794;2022-12-05T02:33:22;32.75;;;17.38;;
21721;SDS011;11023;48.274;7.794;2022-12-05T02:36:12;29.33;;;16.63;;
21721;SDS011;11023;48.274;7.794;2022-12-05T02:39:11;33.33;;;17.30;;
21721;SDS011;11023;48.274;7.794;2022-12-05T02:41:46;30.63;;;17.23;;
21721;SDS011;11023;48.274;7.794;2022-12-05T02:44:30;27.23;;;16.50;;
21721;SDS011;11023;48.274;7.794;2022-12-05T02:47:02;32.65;;;18.13;;
21721;SDS011;11023;48.274;7.794;2022-12-05T02:49:31;30.08;;;17.58;;
21721;SDS011;11023;48.274;7.794;2022-12-05T02:52:00;31.75;;;17.55;;
21721;SDS011;11023;48.274;7.794;2022-12-05T02:54:34;30.30;;;17.65;;
21721;SDS011;11023;48.274;7.794;2022-12-05T02:57:03;33.53;;;18.60;;
21721;SDS011;11023;48.274;7.794;2022-12-05T02:59:31;34.25;;;19.25;;
21721;SDS011;11023;48.274;7.794;2022-12-05T03:01:57;32.10;;;17.70;;
21721;SDS011;11023;48.274;7.794;2022-12-05T03:04:23;33.88;;;18.40;;
21721;SDS011;11023;48.274;7.794;2022-12-05T03:06:57;29.58;;;16.42;;
21721;SDS011;11023;48.274;7.794;2022-12-05T03:12:14;31.15;;;17.23;;
21721;SDS011;11023;48.274;7.794;2022-12-05T03:14:57;31.77;;;17.80;;
21721;SDS011;11023;48.274;7.794;2022-12-05T03:17:29;31.48;;;18.20;;
21721;SDS011;11023;48.274;7.794;2022-12-05T03:22:35;33.58;;;17.88;;
21721;SDS011;11023;48.274;7.794;2022-12-05T03:25:07;31.17;;;17.55;;
21721;SDS011;11023;48.274;7.794;2022-12-05T03:27:49;34.63;;;16.83;;
21721;SDS011;11023;48.274;7.794;2022-12-05T03:30:23;27.05;;;15.30;;
21721;SDS011;11023;48.274;7.794;2022-12-05T03:37:53;33.22;;;18.38;;
21721;SDS011;11023;48.274;7.794;2022-12-05T03:43:07;28.77;;;16.70;;
21721;SDS011;11023;48.274;7.794;2022-12-05T03:45:42;28.33;;;16.10;;
21721;SDS011;11023;48.274;7.794;2022-12-05T03:48:28;29.67;;;16.85;;
21721;SDS011;11023;48.274;7.794;2022-12-05T03:51:24;27.25;;;16.05;;
21721;SDS011;11023;48.274;7.794;2022-12-05T03:53:56;30.58;;;17.52;;
21721;SDS011;11023;48.274;7.794;2022-12-05T03:56:45;34.20;;;17.30;;
21721;SDS011;11023;48.274;7.794;2022-12-05T03:59:25;30.63;;;17.17;;
21721;SDS011;11023;48.274;7.794;2022-12-05T04:02:06;34.78;;;19.05;;
21721;SDS011;11023;48.274;7.794;2022-12-05T04:04:37;32.80;;;18.43;;
21721;SDS011;11023;48.274;7.794;2022-12-05T04:07:11;33.45;;;17.80;;
21721;SDS011;11023;48.274;7.794;2022-12-05T04:09:44;31.08;;;17.40;;
21721;SDS011;11023;48.274;7.794;2022-12-05T04:12:25;32.65;;;17.98;;
21721;SDS011;11023;48.274;7.794;2022-12-05T04:14:58;33.20;;;18.17;;
21721;SDS011;11023;48.274;7.794;2022-12-05T04:19:58;30.20;;;18.35;;
21721;SDS011;11023;48.274;7.794;2022-12-05T04:22:53;30.75;;;17.63;;
21721;SDS011;11023;48.274;7.794;2022-12-05T04:25:19;31.85;;;17.83;;
21721;SDS011;11023;48.274;7.794;2022-12-05T04:35:54;32.30;;;17.70;;
21721;SDS011;11023;48.274;7.794;2022-12-05T04:38:50;31.02;;;17.42;;
21721;SDS011;11023;48.274;7.794;2022-12-05T04:41:20;30.88;;;17.60;;
21721;SDS011;11023;48.274;7.794;2022-12-05T04:43:50;33.05;;;18.33;;
21721;SDS011;11023;48.274;7.794;2022-12-05T04:46:19;34.08;;;19.02;;
21721;SDS011;11023;48.274;7.794;2022-12-05T04:48:51;36.42;;;19.73;;
21721;SDS011;11023;48.274;7.794;2022-12-05T04:51:23;32.45;;;18.65;;
21721;SDS011;11023;48.274;7.794;2022-12-05T04:53:55;30.63;;;18.58;;
21721;SDS011;11023;48.274;7.794;2022-12-05T04:56:26;37.90;;;20.02;;
21721;SDS011;11023;48.274;7.794;2022-12-05T04:58:55;33.30;;;18.23;;
21721;SDS011;11023;48.274;7.794;2022-12-05T05:01:26;35.08;;;19.88;;
21721;SDS011;11023;48.274;7.794;2022-12-05T05:04:01;34.13;;;18.90;;
21721;SDS011;11023;48.274;7.794;2022-12-05T05:06:35;38.90;;;21.63;;
21721;SDS011;11023;48.274;7.794;2022-12-05T05:09:05;38.03;;;21.23;;
21721;SDS011;11023;48.274;7.794;2022-12-05T05:11:32;36.67;;;20.35;;
21721;SDS011;11023;48.274;7.794;2022-12-05T05:13:59;37.90;;;21.88;;
21721;SDS011;11023;48.274;7.794;2022-12-05T05:16:44;37.70;;;21.45;;
21721;SDS011;11023;48.274;7.794;2022-12-05T05:19:11;38.53;;;21.08;;
21721;SDS011;11023;48.274;7.794;2022-12-05T05:21:38;42.17;;;22.70;;
21721;SDS011;11023;48.274;7.794;2022-12-05T05:24:06;36.30;;;20.63;;
21721;SDS011;11023;48.274;7.794;2022-12-05T05:26:34;39.78;;;22.48;;
21721;SDS011;11023;48.274;7.794;2022-12-05T05:29:01;39.50;;;21.67;;
21721;SDS011;11023;48.274;7.794;2022-12-05T05:31:31;40.25;;;21.98;;
21721;SDS011;11023;48.274;7.794;2022-12-05T05:33:58;39.85;;;21.90;;
21721;SDS011;11023;48.274;7.794;2022-12-05T05:36:25;43.83;;;22.02;;
21721;SDS011;11023;48.274;7.794;2022-12-05T05:38:53;38.22;;;21.10;;
21721;SDS011;11023;48.274;7.794;2022-12-05T05:41:22;37.90;;;20.48;;
21721;SDS011;11023;48.274;7.794;2022-12-05T05:43:51;39.25;;;21.65;;
21721;SDS011;11023;48.274;7.794;2022-12-05T05:46:18;40.92;;;22.70;;
21721;SDS011;11023;48.274;7.794;2022-12-05T05:48:46;35.13;;;20.17;;
21721;SDS011;11023;48.274;7.794;2022-12-05T05:51:13;39.63;;;22.13;;
21721;SDS011;11023;48.274;7.794;2022-12-05T05:53:39;41.95;;;22.80;;
21721;SDS011;11023;48.274;7.794;2022-12-05T05:56:10;42.30;;;24.63;;
21721;SDS011;11023;48.274;7.794;2022-12-05T05:58:37;43.22;;;24.17;;
21721;SDS011;11023;48.274;7.794;2022-12-05T06:01:04;44.17;;;25.33;;
21721;SDS011;11023;48.274;7.794;2022-12-05T06:03:35;44.13;;;26.08;;
21721;SDS011;11023;48.274;7.794;2022-12-05T06:06:04;41.53;;;23.98;;
21721;SDS011;11023;48.274;7.794;2022-12-05T06:08:32;45.03;;;24.45;;
21721;SDS011;11023;48.274;7.794;2022-12-05T06:11:03;38.22;;;22.67;;
21721;SDS011;11023;48.274;7.794;2022-12-05T06:13:31;42.65;;;25.13;;
21721;SDS011;11023;48.274;7.794;2022-12-05T06:15:57;41.13;;;25.00;;
21721;SDS011;11023;48.274;7.794;2022-12-05T06:18:23;39.55;;;24.23;;
21721;SDS011;11023;48.274;7.794;2022-12-05T06:20:55;42.72;;;25.00;;
21721;SDS011;11023;48.274;7.794;2022-12-05T06:23:23;41.60;;;23.50;;
21721;SDS011;11023;48.274;7.794;2022-12-05T06:25:51;38.65;;;23.38;;
21721;SDS011;11023;48.274;7.794;2022-12-05T06:28:18;35.53;;;20.80;;
21721;SDS011;11023;48.274;7.794;2022-12-05T06:30:46;34.95;;;20.42;;
21721;SDS011;11023;48.274;7.794;2022-12-05T06:33:12;37.42;;;19.38;;
21721;SDS011;11023;48.274;7.794;2022-12-05T06:35:39;36.47;;;19.83;;
21721;SDS011;11023;48.274;7.794;2022-12-05T06:38:05;32.25;;;17.83;;
21721;SDS011;11023;48.274;7.794;2022-12-05T06:40:32;37.55;;;20.25;;
21721;SDS011;11023;48.274;7.794;2022-12-05T06:42:58;37.25;;;20.13;;
21721;SDS011;11023;48.274;7.794;2022-12-05T06:45:24;35.30;;;19.30;;
21721;SDS011;11023;48.274;7.794;2022-12-05T06:47:51;35.47;;;19.13;;
21721;SDS011;11023;48.274;7.794;2022-12-05T06:50:17;32.78;;;18.77;;
21721;SDS011;11023;48.274;7.794;2022-12-05T06:52:43;35.42;;;20.25;;
21721;SDS011;11023;48.274;7.794;2022-12-05T06:55:09;33.83;;;18.40;;
21721;SDS011;11023;48.274;7.794;2022-12-05T06:57:35;33.45;;;18.75;;
21721;SDS011;11023;48.274;7.794;2022-12-05T07:00:02;33.78;;;19.35;;
21721;SDS011;11023;48.274;7.794;2022-12-05T07:02:51;31.95;;;18.48;;
21721;SDS011;11023;48.274;7.794;2022-12-05T07:05:17;36.80;;;18.83;;
21721;SDS011;11023;48.274;7.794;2022-12-05T07:07:43;30.05;;;18.25;;
21721;SDS011;11023;48.274;7.794;2022-12-05T07:10:09;31.70;;;18.80;;
21721;SDS011;11023;48.274;7.794;2022-12-05T07:12:35;36.72;;;20.40;;
21721;SDS011;11023;48.274;7.794;2022-12-05T07:15:00;33.13;;;18.88;;
21721;SDS011;11023;48.274;7.794;2022-12-05T07:17:26;34.33;;;20.67;;
21721;SDS011;11023;48.274;7.794;2022-12-05T07:19:52;33.13;;;19.15;;
21721;SDS011;11023;48.274;7.794;2022-12-05T07:22:18;36.35;;;21.15;;
21721;SDS011;11023;48.274;7.794;2022-12-05T07:24:45;33.63;;;19.58;;
21721;SDS011;11023;48.274;7.794;2022-12-05T07:27:12;34.67;;;20.10;;
21721;SDS011;11023;48.274;7.794;2022-12-05T07:29:38;35.63;;;21.13;;
21721;SDS011;11023;48.274;7.794;2022-12-05T07:32:04;33.47;;;19.75;;
21721;SDS011;11023;48.274;7.794;2022-12-05T07:34:30;36.83;;;21.10;;
21721;SDS011;11023;48.274;7.794;2022-12-05T07:36:56;43.08;;;23.08;;
21721;SDS011;11023;48.274;7.794;2022-12-05T07:39:22;36.08;;;21.70;;
21721;SDS011;11023;48.274;7.794;2022-12-05T07:41:47;36.55;;;20.58;;
21721;SDS011;11023;48.274;7.794;2022-12-05T07:44:13;33.63;;;21.00;;
21721;SDS011;11023;48.274;7.794;2022-12-05T07:46:39;31.98;;;19.33;;
21721;SDS011;11023;48.274;7.794;2022-12-05T07:49:05;33.53;;;18.55;;
21721;SDS011;11023;48.274;7.794;2022-12-05T07:51:31;31.00;;;18.55;;
21721;SDS011;11023;48.274;7.794;2022-12-05T07:53:58;28.00;;;17.45;;
21721;SDS011;11023;48.274;7.794;2022-12-05T07:56:25;26.85;;;16.63;;
21721;SDS011;11023;48.274;7.794;2022-12-05T07:58:51;20.63;;;13.23;;
21721;SDS011;11023;48.274;7.794;2022-12-05T08:01:18;13.80;;;9.50;;
21721;SDS011;11023;48.274;7.794;2022-12-05T08:03:45;12.80;;;8.60;;
21721;SDS011;11023;48.274;7.794;2022-12-05T08:06:16;13.38;;;9.07;;
21721;SDS011;11023;48.274;7.794;2022-12-05T08:08:43;11.52;;;8.45;;
21721;SDS011;11023;48.274;7.794;2022-12-05T08:11:14;12.07;;;8.38;;
21721;SDS011;11023;48.274;7.794;2022-12-05T08:13:43;11.85;;;8.23;;
21721;SDS011;11023;48.274;7.794;2022-12-05T08:16:11;12.15;;;8.40;;
21721;SDS011;11023;48.274;7.794;2022-12-05T08:18:37;12.65;;;8.43;;
21721;SDS011;11023;48.274;7.794;2022-12-05T08:21:04;12.02;;;8.45;;
21721;SDS011;11023;48.274;7.794;2022-12-05T08:23:35;13.05;;;8.18;;
21721;SDS011;11023;48.274;7.794;2022-12-05T08:26:02;11.48;;;8.45;;
21721;SDS011;11023;48.274;7.794;2022-12-05T08:28:39;11.43;;;7.55;;
21721;SDS011;11023;48.274;7.794;2022-12-05T08:31:15;11.23;;;7.70;;
21721;SDS011;11023;48.274;7.794;2022-12-05T08:33:43;12.98;;;8.02;;
21721;SDS011;11023;48.274;7.794;2022-12-05T08:36:10;11.05;;;7.97;;
21721;SDS011;11023;48.274;7.794;2022-12-05T08:38:37;10.77;;;7.55;;
21721;SDS011;11023;48.274;7.794;2022-12-05T08:41:03;11.48;;;8.02;;
21721;SDS011;11023;48.274;7.794;2022-12-05T08:43:31;13.27;;;8.27;;
21721;SDS011;11023;48.274;7.794;2022-12-05T08:45:57;11.50;;;8.07;;
21721;SDS011;11023;48.274;7.794;2022-12-05T08:48:24;10.13;;;7.57;;
21721;SDS011;11023;48.274;7.794;2022-12-05T08:50:50;11.55;;;7.63;;
21721;SDS011;11023;48.274;7.794;2022-12-05T08:53:16;10.02;;;7.15;;
21721;SDS011;11023;48.274;7.794;2022-12-05T08:55:42;10.77;;;7.68;;
21721;SDS011;11023;48.274;7.794;2022-12-05T08:58:09;11.00;;;7.32;;
21721;SDS011;11023;48.274;7.794;2022-12-05T09:00:36;9.40;;;6.72;;
21721;SDS011;11023;48.274;7.794;2022-12-05T09:03:02;9.80;;;6.88;;
21721;SDS011;11023;48.274;7.794;2022-12-05T09:05:28;8.77;;;6.60;;
21721;SDS011;11023;48.274;7.794;2022-12-05T09:07:53;9.93;;;6.78;;
21721;SDS011;11023;48.274;7.794;2022-12-05T09:10:19;8.73;;;6.47;;
21721;SDS011;11023;48.274;7.794;2022-12-05T09:12:45;8.63;;;6.68;;
21721;SDS011;11023;48.274;7.794;2022-12-05T09:15:11;9.02;;;6.43;;
21721;SDS011;11023;48.274;7.794;2022-12-05T09:17:38;9.18;;;6.25;;
21721;SDS011;11023;48.274;7.794;2022-12-05T09:20:04;7.82;;;5.82;;
21721;SDS011;11023;48.274;7.794;2022-12-05T09:22:31;7.18;;;5.43;;
21721;SDS011;11023;48.274;7.794;2022-12-05T09:24:57;8.25;;;6.28;;
21721;SDS011;11023;48.274;7.794;2022-12-05T09:27:24;10.68;;;6.15;;
21721;SDS011;11023;48.274;7.794;2022-12-05T09:29:52;7.82;;;5.75;;
21721;SDS011;11023;48.274;7.794;2022-12-05T09:32:17;7.88;;;5.90;;
21721;SDS011;11023;48.274;7.794;2022-12-05T09:34:43;8.27;;;5.63;;
21721;SDS011;11023;48.274;7.794;2022-12-05T09:37:09;8.20;;;5.97;;
21721;SDS011;11023;48.274;7.794;2022-12-05T09:39:34;7.82;;;5.65;;
21721;SDS011;11023;48.274;7.794;2022-12-05T09:45:17;7.13;;;5.50;;
21721;SDS011;11023;48.274;7.794;2022-12-05T09:47:53;7.70;;;5.00;;
21721;SDS011;11023;48.274;7.794;2022-12-05T09:50:29;5.97;;;4.72;;
21721;SDS011;11023;48.274;7.794;2022-12-05T09:55:38;7.53;;;5.10;;
21721;SDS011;11023;48.274;7.794;2022-12-05T09:58:19;7.38;;;4.70;;
21721;SDS011;11023;48.274;7.794;2022-12-05T10:00:50;7.28;;;4.95;;
21721;SDS011;11023;48.274;7.794;2022-12-05T10:03:29;7.93;;;5.30;;
21721;SDS011;11023;48.274;7.794;2022-12-05T10:08:38;6.07;;;4.78;;
21721;SDS011;11023;48.274;7.794;2022-12-05T10:11:33;7.25;;;5.57;;
21721;SDS011;11023;48.274;7.794;2022-12-05T10:16:55;6.47;;;5.07;;
21721;SDS011;11023;48.274;7.794;2022-12-05T10:19:31;7.85;;;5.53;;
21721;SDS011;11023;48.274;7.794;2022-12-05T10:24:53;7.20;;;5.07;;
21721;SDS011;11023;48.274;7.794;2022-12-05T10:27:26;7.70;;;5.63;;
21721;SDS011;11023;48.274;7.794;2022-12-05T10:30:11;7.10;;;5.38;;
21721;SDS011;11023;48.274;7.794;2022-12-05T10:35:23;8.07;;;5.50;;
21721;SDS011;11023;48.274;7.794;2022-12-05T10:37:52;7.40;;;5.18;;
21721;SDS011;11023;48.274;7.794;2022-12-05T10:40:20;7.88;;;5.43;;
21721;SDS011;11023;48.274;7.794;2022-12-05T10:42:47;8.13;;;5.30;;
21721;SDS011;11023;48.274;7.794;2022-12-05T10:45:16;7.32;;;5.45;;
21721;SDS011;11023;48.274;7.794;2022-12-05T10:47:47;6.97;;;5.28;;
21721;SDS011;11023;48.274;7.794;2022-12-05T10:50:24;7.45;;;5.45;;
21721;SDS011;11023;48.274;7.794;2022-12-05T10:52:55;7.20;;;5.28;;
21721;SDS011;11023;48.274;7.794;2022-12-05T10:55:21;7.10;;;5.18;;
21721;SDS011;11023;48.274;7.794;2022-12-05T10:57:53;8.20;;;5.22;;
21721;SDS011;11023;48.274;7.794;2022-12-05T11:00:38;6.30;;;4.72;;
21721;SDS011;11023;48.274;7.794;2022-12-05T11:03:18;5.45;;;4.30;;
21721;SDS011;11023;48.274;7.794;2022-12-05T11:05:49;7.78;;;4.70;;
21721;SDS011;11023;48.274;7.794;2022-12-05T11:08:28;7.15;;;4.40;;
21721;SDS011;11023;48.274;7.794;2022-12-05T11:11:00;5.20;;;4.05;;
21721;SDS011;11023;48.274;7.794;2022-12-05T11:13:27;5.28;;;3.88;;
21721;SDS011;11023;48.274;7.794;2022-12-05T11:15:53;5.47;;;4.10;;
21721;SDS011;11023;48.274;7.794;2022-12-05T11:18:27;4.95;;;3.95;;
21721;SDS011;11023;48.274;7.794;2022-12-05T11:20:53;5.70;;;4.28;;
21721;SDS011;11023;48.274;7.794;2022-12-05T11:23:28;5.97;;;4.10;;
21721;SDS011;11023;48.274;7.794;2022-12-05T11:25:55;6.72;;;4.32;;
21721;SDS011;11023;48.274;7.794;2022-12-05T11:28:35;5.38;;;4.45;;
21721;SDS011;11023;48.274;7.794;2022-12-05T11:33:36;6.30;;;4.53;;
21721;SDS011;11023;48.274;7.794;2022-12-05T11:36:04;7.72;;;4.85;;
21721;SDS011;11023;48.274;7.794;2022-12-05T11:38:39;6.55;;;5.00;;
21721;SDS011;11023;48.274;7.794;2022-12-05T11:52:07;4.35;;;3.75;;
21721;SDS011;11023;48.274;7.794;2022-12-05T11:54:45;5.70;;;4.10;;
21721;SDS011;11023;48.274;7.794;2022-12-05T12:00:14;3.72;;;3.33;;
21721;SDS011;11023;48.274;7.794;2022-12-05T12:08:25;6.03;;;4.70;;
21721;SDS011;11023;48.274;7.794;2022-12-05T12:11:07;6.57;;;4.65;;
21721;SDS011;11023;48.274;7.794;2022-12-05T12:24:32;6.80;;;4.80;;
21721;SDS011;11023;48.274;7.794;2022-12-05T12:30:02;6.90;;;4.95;;
21721;SDS011;11023;48.274;7.794;2022-12-05T12:38:02;6.40;;;4.55;;
21721;SDS011;11023;48.274;7.794;2022-12-05T12:40:52;6.55;;;4.78;;
21721;SDS011;11023;48.274;7.794;2022-12-05T12:46:22;5.05;;;4.05;;
21721;SDS011;11023;48.274;7.794;2022-12-05T12:52:02;4.40;;;3.70;;
21721;SDS011;11023;48.274;7.794;2022-12-05T13:00:35;5.18;;;2.88;;
21721;SDS011;11023;48.274;7.794;2022-12-05T13:03:21;5.53;;;3.25;;
21721;SDS011;11023;48.274;7.794;2022-12-05T13:06:04;4.18;;;3.42;;
21721;SDS011;11023;48.274;7.794;2022-12-05T13:08:38;3.92;;;3.30;;
21721;SDS011;11023;48.274;7.794;2022-12-05T13:11:09;4.05;;;3.13;;
21721;SDS011;11023;48.274;7.794;2022-12-05T13:13:46;3.72;;;3.00;;
21721;SDS011;11023;48.274;7.794;2022-12-05T13:16:32;3.55;;;3.08;;
21721;SDS011;11023;48.274;7.794;2022-12-05T13:19:01;5.63;;;3.03;;
21721;SDS011;11023;48.274;7.794;2022-12-05T13:21:29;4.03;;;3.03;;
21721;SDS011;11023;48.274;7.794;2022-12-05T13:23:56;3.58;;;2.95;;
21721;SDS011;11023;48.274;7.794;2022-12-05T13:26:27;3.67;;;2.92;;
21721;SDS011;11023;48.274;7.794;2022-12-05T13:36:53;5.75;;;3.05;;
21721;SDS011;11023;48.274;7.794;2022-12-05T13:39:38;4.53;;;2.80;;
21721;SDS011;11023;48.274;7.794;2022-12-05T13:42:23;3.72;;;2.97;;
21721;SDS011;11023;48.274;7.794;2022-12-05T13:44:57;3.92;;;3.17;;
21721;SDS011;11023;48.274;7.794;2022-12-05T13:47:31;4.25;;;3.10;;
21721;SDS011;11023;48.274;7.794;2022-12-05T13:58:40;4.22;;;3.30;;
21721;SDS011;11023;48.274;7.794;2022-12-05T14:09:26;3.45;;;2.83;;
21721;SDS011;11023;48.274;7.794;2022-12-05T14:17:25;3.63;;;2.53;;
21721;SDS011;11023;48.274;7.794;2022-12-05T14:22:59;3.45;;;2.42;;
21721;SDS011;11023;48.274;7.794;2022-12-05T14:34:54;3.30;;;3.00;;
21721;SDS011;11023;48.274;7.794;2022-12-05T14:37:49;3.47;;;2.70;;
21721;SDS011;11023;48.274;7.794;2022-12-05T14:42:41;2.97;;;2.50;;
21721;SDS011;11023;48.274;7.794;2022-12-05T14:45:26;3.03;;;2.15;;
21721;SDS011;11023;48.274;7.794;2022-12-05T14:48:25;2.63;;;1.90;;
21721;SDS011;11023;48.274;7.794;2022-12-05T14:51:00;3.50;;;2.13;;
21721;SDS011;11023;48.274;7.794;2022-12-05T14:53:30;2.72;;;2.10;;
21721;SDS011;11023;48.274;7.794;2022-12-05T14:56:11;4.90;;;2.72;;
21721;SDS011;11023;48.274;7.794;2022-12-05T14:58:55;3.03;;;2.40;;
21721;SDS011;11023;48.274;7.794;2022-12-05T15:12:09;3.57;;;2.80;;
21721;SDS011;11023;48.274;7.794;2022-12-05T15:14:44;2.63;;;2.20;;
21721;SDS011;11023;48.274;7.794;2022-12-05T15:17:14;4.50;;;2.78;;
21721;SDS011;11023;48.274;7.794;2022-12-05T15:19:56;3.20;;;2.70;;
21721;SDS011;11023;48.274;7.794;2022-12-05T15:22:28;3.75;;;2.97;;
21721;SDS011;11023;48.274;7.794;2022-12-05T15:24:57;6.70;;;2.97;;
21721;SDS011;11023;48.274;7.794;2022-12-05T15:27:38;4.88;;;2.90;;
21721;SDS011;11023;48.274;7.794;2022-12-05T15:30:04;4.25;;;3.17;;
21721;SDS011;11023;48.274;7.794;2022-12-05T15:32:37;6.32;;;3.28;;
21721;SDS011;11023;48.274;7.794;2022-12-05T15:35:05;5.95;;;3.25;;
21721;SDS011;11023;48.274;7.794;2022-12-05T15:40:17;5.82;;;2.72;;
21721;SDS011;11023;48.274;7.794;2022-12-05T15:42:46;3.90;;;2.60;;
21721;SDS011;11023;48.274;7.794;2022-12-05T15:45:25;4.32;;;2.25;;
21721;SDS011;11023;48.274;7.794;2022-12-05T15:47:53;3.55;;;2.40;;
21721;SDS011;11023;48.274;7.794;2022-12-05T15:50:40;3.15;;;2.35;;
21721;SDS011;11023;48.274;7.794;2022-12-05T16:01:19;2.33;;;1.92;;
21721;SDS011;11023;48.274;7.794;2022-12-05T16:08:55;2.70;;;2.20;;
21721;SDS011;11023;48.274;7.794;2022-12-05T16:11:21;2.30;;;2.08;;
21721;SDS011;11023;48.274;7.794;2022-12-05T16:13:53;2.30;;;1.77;;
21721;SDS011;11023;48.274;7.794;2022-12-05T16:16:22;2.67;;;2.03;;
21721;SDS011;11023;48.274;7.794;2022-12-05T16:18:53;5.78;;;3.80;;
21721;SDS011;11023;48.274;7.794;2022-12-05T16:21:28;5.97;;;4.45;;
21721;SDS011;11023;48.274;7.794;2022-12-05T16:24:05;8.45;;;6.32;;
21721;SDS011;11023;48.274;7.794;2022-12-05T16:27:14;9.40;;;6.45;;
21721;SDS011;11023;48.274;7.794;2022-12-05T16:32:41;6.38;;;3.40;;
21721;SDS011;11023;48.274;7.794;2022-12-05T16:38:08;3.25;;;2.95;;
21721;SDS011;11023;48.274;7.794;2022-12-05T16:40:40;5.72;;;3.47;;
21721;SDS011;11023;48.274;7.794;2022-12-05T16:45:49;3.38;;;2.15;;
21721;SDS011;11023;48.274;7.794;2022-12-05T16:48:24;2.25;;;2.05;;
21721;SDS011;11023;48.274;7.794;2022-12-05T16:53:38;2.47;;;1.90;;
21721;SDS011;11023;48.274;7.794;2022-12-05T16:56:17;4.00;;;2.03;;
21721;SDS011;11023;48.274;7.794;2022-12-05T16:58:44;2.45;;;2.05;;
21721;SDS011;11023;48.274;7.794;2022-12-05T17:01:14;2.15;;;1.90;;
21721;SDS011;11023;48.274;7.794;2022-12-05T17:03:42;2.80;;;1.92;;
21721;SDS011;11023;48.274;7.794;2022-12-05T17:06:09;2.92;;;2.03;;
21721;SDS011;11023;48.274;7.794;2022-12-05T17:08:35;3.78;;;2.20;;
21721;SDS011;11023;48.274;7.794;2022-12-05T17:11:00;4.07;;;2.47;;
21721;SDS011;11023;48.274;7.794;2022-12-05T17:13:28;4.97;;;2.92;;
21721;SDS011;11023;48.274;7.794;2022-12-05T17:15:56;4.55;;;3.40;;
21721;SDS011;11023;48.274;7.794;2022-12-05T17:18:21;4.43;;;3.15;;
21721;SDS011;11023;48.274;7.794;2022-12-05T17:20:49;4.13;;;3.10;;
21721;SDS011;11023;48.274;7.794;2022-12-05T17:23:18;3.45;;;2.88;;
21721;SDS011;11023;48.274;7.794;2022-12-05T17:26:02;4.28;;;2.92;;
21721;SDS011;11023;48.274;7.794;2022-12-05T17:28:28;6.88;;;3.75;;
21721;SDS011;11023;48.274;7.794;2022-12-05T17:30:54;4.32;;;3.13;;
21721;SDS011;11023;48.274;7.794;2022-12-05T17:33:21;4.13;;;3.33;;
21721;SDS011;11023;48.274;7.794;2022-12-05T17:35:47;4.05;;;3.22;;
21721;SDS011;11023;48.274;7.794;2022-12-05T17:38:12;4.60;;;3.63;;
21721;SDS011;11023;48.274;7.794;2022-12-05T17:40:39;4.90;;;3.58;;
21721;SDS011;11023;48.274;7.794;2022-12-05T17:43:05;6.15;;;4.20;;
21721;SDS011;11023;48.274;7.794;2022-12-05T17:45:31;6.78;;;5.30;;
21721;SDS011;11023;48.274;7.794;2022-12-05T17:47:57;6.00;;;4.78;;
21721;SDS011;11023;48.274;7.794;2022-12-05T17:50:23;7.47;;;5.30;;
21721;SDS011;11023;48.274;7.794;2022-12-05T17:52:50;5.80;;;4.28;;
21721;SDS011;11023;48.274;7.794;2022-12-05T17:55:20;5.47;;;4.18;;
21721;SDS011;11023;48.274;7.794;2022-12-05T17:57:47;5.20;;;4.30;;
21721;SDS011;11023;48.274;7.794;2022-12-05T18:00:14;5.95;;;4.53;;
21721;SDS011;11023;48.274;7.794;2022-12-05T18:02:42;6.07;;;4.00;;
21721;SDS011;11023;48.274;7.794;2022-12-05T18:05:09;5.63;;;4.53;;
21721;SDS011;11023;48.274;7.794;2022-12-05T18:07:36;6.50;;;4.10;;
21721;SDS011;11023;48.274;7.794;2022-12-05T18:10:03;4.82;;;3.85;;